createdAt,value
2018-06-10T00:01:32.419Z,2.00
2018-06-10T00:04:10.458Z,1.50
2018-06-10T00:06:48.265Z,1.80
2018-06-10T00:09:26.274Z,1.77
2018-06-10T00:12:04.292Z,1.60
2018-06-10T00:14:42.308Z,1.80
2018-06-10T00:17:20.966Z,1.70
2018-06-10T00:19:58.106Z,1.60
2018-06-10T00:22:36.415Z,1.70
2018-06-10T00:25:18.731Z,1.85
2018-06-10T00:27:57.313Z,1.50
2018-06-10T00:30:34.499Z,1.62
2018-06-10T00:33:12.846Z,1.80
2018-06-10T00:35:50.545Z,1.87
2018-06-10T00:38:28.558Z,2.00
2018-06-10T00:41:06.660Z,1.87
2018-06-10T00:43:43.874Z,1.97
2018-06-10T00:46:21.208Z,1.70
2018-06-10T00:48:58.090Z,1.72
2018-06-10T00:51:36.276Z,1.90
2018-06-10T00:54:13.539Z,2.00
2018-06-10T00:56:57.231Z,1.67
2018-06-10T00:59:35.315Z,1.80
2018-06-10T01:02:12.705Z,1.62
2018-06-10T01:04:51.056Z,1.83
2018-06-10T01:07:28.506Z,1.93
2018-06-10T01:10:06.679Z,1.77
2018-06-10T01:12:44.485Z,1.50
2018-06-10T01:17:57.927Z,1.80
2018-06-10T01:20:35.815Z,1.57
2018-06-10T01:23:13.275Z,1.80
2018-06-10T01:25:51.316Z,1.62
2018-06-10T01:28:31.499Z,1.73
2018-06-10T01:31:09.891Z,1.80
2018-06-10T01:33:48.114Z,1.90
2018-06-10T01:36:25.852Z,1.90
2018-06-10T01:39:04.077Z,2.35
2018-06-10T01:41:41.513Z,2.00
2018-06-10T01:44:19.406Z,2.15
2018-06-10T01:46:57.756Z,2.47
2018-06-10T01:49:35.467Z,2.47
2018-06-10T01:52:13.281Z,1.70
2018-06-10T01:54:50.516Z,2.20
2018-06-10T01:57:27.291Z,1.90
2018-06-10T02:00:05.578Z,2.60
2018-06-10T02:02:43.301Z,2.22
2018-06-10T02:05:23.300Z,1.90
2018-06-10T02:08:00.714Z,2.63
2018-06-10T02:10:38.679Z,2.00
2018-06-10T02:13:16.720Z,3.00
2018-06-10T02:15:54.923Z,2.43
2018-06-10T02:18:34.339Z,1.95
2018-06-10T02:21:13.476Z,1.85
2018-06-10T02:23:56.754Z,1.80
2018-06-10T02:29:25.270Z,2.10
2018-06-10T02:32:02.751Z,1.90
2018-06-10T02:34:41.343Z,1.90
2018-06-10T02:37:19.415Z,1.90
2018-06-10T02:39:57.938Z,2.17
2018-06-10T02:42:36.884Z,1.85
2018-06-10T02:45:16.270Z,2.40
2018-06-10T02:47:53.761Z,2.00
2018-06-10T02:50:31.087Z,2.03
2018-06-10T02:53:08.856Z,1.77
2018-06-10T02:55:47.086Z,1.70
2018-06-10T02:58:24.546Z,2.02
2018-06-10T03:01:03.261Z,3.00
2018-06-10T03:03:40.853Z,2.10
2018-06-10T03:06:18.827Z,2.67
2018-06-10T03:08:56.083Z,2.63
2018-06-10T03:11:33.201Z,2.20
2018-06-10T03:14:11.210Z,1.90
2018-06-10T03:16:48.674Z,2.00
2018-06-10T03:19:26.838Z,2.20
2018-06-10T03:22:04.286Z,1.90
2018-06-10T03:24:42.280Z,2.10
2018-06-10T03:27:19.323Z,1.95
2018-06-10T03:29:57.876Z,2.13
2018-06-10T03:32:35.461Z,2.07
2018-06-10T03:35:13.422Z,2.00
2018-06-10T03:37:52.280Z,2.20
2018-06-10T03:43:06.682Z,1.93
2018-06-10T03:45:45.341Z,1.97
2018-06-10T03:48:23.087Z,2.22
2018-06-10T03:51:00.730Z,2.50
2018-06-10T03:53:38.590Z,2.20
2018-06-10T03:56:16.443Z,2.17
2018-06-10T03:58:53.956Z,2.20
2018-06-10T04:01:31.473Z,2.10
2018-06-10T04:04:08.922Z,2.37
2018-06-10T04:06:46.842Z,2.23
2018-06-10T04:09:25.427Z,2.15
2018-06-10T04:12:03.490Z,1.80
2018-06-10T04:14:40.771Z,1.97
2018-06-10T04:17:17.863Z,2.00
2018-06-10T04:19:55.566Z,1.55
2018-06-10T04:22:33.875Z,1.77
2018-06-10T04:25:10.808Z,1.80
2018-06-10T04:27:48.664Z,2.00
2018-06-10T04:30:26.668Z,1.97
2018-06-10T04:33:04.273Z,1.80
2018-06-10T04:35:41.970Z,2.08
2018-06-10T04:38:19.124Z,1.72
2018-06-10T04:40:57.488Z,2.00
2018-06-10T04:46:12.268Z,1.72
2018-06-10T04:48:50.310Z,2.17
2018-06-10T04:51:27.884Z,2.10
2018-06-10T04:54:05.945Z,2.20
2018-06-10T04:56:44.410Z,2.50
2018-06-10T04:59:22.878Z,2.33
2018-06-10T05:02:00.849Z,2.53
2018-06-10T05:04:39.310Z,2.20
2018-06-10T05:07:18.847Z,1.97
2018-06-10T05:09:56.206Z,1.90
2018-06-10T05:12:36.470Z,2.05
2018-06-10T05:15:13.689Z,2.10
2018-06-10T05:17:51.305Z,1.97
2018-06-10T05:20:28.857Z,2.20
2018-06-10T05:23:07.303Z,2.27
2018-06-10T05:25:44.863Z,2.30
2018-06-10T05:30:49.809Z,2.15
2018-06-10T05:33:28.180Z,2.10
2018-06-10T05:36:04.960Z,2.23
2018-06-10T05:38:42.308Z,2.20
2018-06-10T05:41:19.687Z,2.20
2018-06-10T05:43:57.093Z,2.00
2018-06-10T05:46:34.472Z,2.63
2018-06-10T05:49:12.451Z,2.50
2018-06-10T05:51:51.076Z,2.97
2018-06-10T05:54:28.684Z,2.70
2018-06-10T05:57:06.431Z,2.20
2018-06-10T05:59:43.834Z,2.60
2018-06-10T06:02:21.791Z,2.37
2018-06-10T06:05:00.117Z,2.40
2018-06-10T06:07:40.478Z,2.05
2018-06-10T06:10:18.563Z,2.20
2018-06-10T06:12:57.299Z,2.20
2018-06-10T06:15:35.440Z,2.20
2018-06-10T06:18:14.426Z,2.70
2018-06-10T06:20:52.862Z,2.02
2018-06-10T06:23:31.410Z,2.20
2018-06-10T06:26:09.463Z,2.20
2018-06-10T06:28:46.449Z,2.55
2018-06-10T06:31:25.131Z,2.25
2018-06-10T06:34:03.550Z,2.10
2018-06-10T06:39:17.274Z,2.37
2018-06-10T06:41:54.841Z,2.30
2018-06-10T06:44:32.845Z,2.47
2018-06-10T06:47:10.253Z,2.17
2018-06-10T06:49:48.327Z,2.30
2018-06-10T06:52:26.777Z,2.87
2018-06-10T06:55:04.687Z,3.13
2018-06-10T06:57:43.316Z,2.83
2018-06-10T07:00:20.912Z,3.08
2018-06-10T07:02:59.449Z,2.50
2018-06-10T07:05:36.857Z,2.40
2018-06-10T07:08:14.852Z,2.47
2018-06-10T07:10:53.091Z,2.60
2018-06-10T07:13:31.455Z,2.27
2018-06-10T07:16:09.499Z,2.03
2018-06-10T07:18:47.936Z,2.46
2018-06-10T07:21:25.451Z,2.50
2018-06-10T07:24:04.941Z,2.13
2018-06-10T07:29:21.755Z,2.20
2018-06-10T07:31:59.857Z,2.40
2018-06-10T07:34:38.585Z,2.47
2018-06-10T07:37:16.505Z,2.60
2018-06-10T07:39:54.742Z,2.35
2018-06-10T07:42:33.428Z,2.10
2018-06-10T07:45:11.935Z,2.17
2018-06-10T07:47:49.784Z,2.25
2018-06-10T07:50:27.434Z,2.30
2018-06-10T07:53:05.397Z,2.10
2018-06-10T07:55:44.071Z,2.60
2018-06-10T07:58:21.848Z,2.50
2018-06-10T08:01:00.427Z,2.37
2018-06-10T08:06:14.329Z,2.10
2018-06-10T08:08:51.274Z,2.37
2018-06-10T08:11:29.540Z,2.17
2018-06-10T08:14:06.870Z,2.20
2018-06-10T08:16:44.319Z,2.23
2018-06-10T08:19:21.839Z,2.20
2018-06-10T08:21:58.854Z,2.13
2018-06-10T08:24:36.510Z,2.35
2018-06-10T08:27:13.876Z,2.30
2018-06-10T08:29:50.859Z,2.70
2018-06-10T08:32:28.412Z,2.60
2018-06-10T08:37:42.314Z,2.40
2018-06-10T08:42:55.671Z,2.50
2018-06-10T08:45:33.279Z,2.10
2018-06-10T08:48:11.437Z,2.30
2018-06-10T08:50:48.753Z,2.27
2018-06-10T08:53:26.882Z,2.40
2018-06-10T08:56:04.890Z,2.33
2018-06-10T08:58:42.313Z,2.30
2018-06-10T09:01:19.675Z,2.17
2018-06-10T09:03:57.455Z,2.20
2018-06-10T09:06:35.214Z,2.40
2018-06-10T09:09:14.850Z,2.45
2018-06-10T09:11:53.681Z,2.07
2018-06-10T09:14:31.613Z,2.20
2018-06-10T09:17:09.423Z,2.20
2018-06-10T09:19:46.943Z,2.35
2018-06-10T09:22:24.747Z,2.00
2018-06-10T09:25:03.366Z,2.07
2018-06-10T09:27:41.297Z,2.10
2018-06-10T09:30:18.845Z,2.33
2018-06-10T09:32:56.486Z,1.95
2018-06-10T09:38:09.404Z,2.37
2018-06-10T09:40:47.577Z,2.10
2018-06-10T09:43:26.087Z,2.17
2018-06-10T09:46:03.875Z,1.97
2018-06-10T09:48:41.847Z,2.35
2018-06-10T09:51:20.471Z,2.30
2018-06-10T09:53:58.863Z,2.20
2018-06-10T09:56:36.842Z,2.20
2018-06-10T09:59:14.853Z,2.20
2018-06-10T10:01:52.424Z,1.93
2018-06-10T10:04:29.865Z,2.40
2018-06-10T10:07:08.910Z,2.30
2018-06-10T10:12:22.508Z,2.25
2018-06-10T10:15:00.451Z,2.33
2018-06-10T10:17:39.927Z,2.20
2018-06-10T10:20:18.277Z,2.10
2018-06-10T10:22:56.576Z,2.10
2018-06-10T10:25:34.334Z,1.63
2018-06-10T10:30:46.519Z,2.37
2018-06-10T10:33:23.826Z,2.00
2018-06-10T10:36:01.586Z,2.03
2018-06-10T10:38:38.925Z,1.90
2018-06-10T10:41:16.120Z,2.00
2018-06-10T10:43:52.987Z,2.17
2018-06-10T10:46:30.309Z,2.10
2018-06-10T10:49:08.319Z,2.20
2018-06-10T10:54:20.264Z,2.10
2018-06-10T10:56:58.117Z,1.77
2018-06-10T10:59:36.450Z,2.50
2018-06-10T11:04:49.269Z,2.00
2018-06-10T11:10:01.882Z,2.05
2018-06-10T11:12:39.757Z,1.70
2018-06-10T11:15:17.795Z,1.90
2018-06-10T11:20:30.347Z,1.80
2018-06-10T11:23:08.551Z,2.10
2018-06-10T11:25:46.425Z,1.95
2018-06-10T11:28:23.701Z,1.90
2018-06-10T11:31:01.503Z,1.77
2018-06-10T11:36:14.880Z,1.70
2018-06-10T11:38:52.081Z,1.80
2018-06-10T11:41:29.848Z,1.77
2018-06-10T11:44:07.856Z,1.80
2018-06-10T11:46:44.660Z,1.90
2018-06-10T11:49:21.762Z,1.90
2018-06-10T11:51:59.909Z,1.73
2018-06-10T11:54:38.432Z,1.80
2018-06-10T11:57:15.746Z,2.10
2018-06-10T11:59:53.256Z,2.10
2018-06-10T12:02:30.458Z,1.97
2018-06-10T12:05:07.839Z,2.00
2018-06-10T12:07:46.264Z,1.90
2018-06-10T12:10:23.448Z,1.70
2018-06-10T12:15:38.060Z,1.80
2018-06-10T12:18:15.839Z,2.27
2018-06-10T12:20:53.466Z,1.97
2018-06-10T12:23:30.541Z,1.95
2018-06-10T12:26:07.921Z,2.30
2018-06-10T12:28:45.543Z,2.10
2018-06-10T12:31:23.676Z,2.17
2018-06-10T12:34:00.858Z,1.90
2018-06-10T12:36:40.222Z,2.10
2018-06-10T12:39:18.076Z,1.95
2018-06-10T12:41:55.505Z,2.20
2018-06-10T12:44:33.639Z,2.27
2018-06-10T12:50:08.273Z,2.44
2018-06-10T12:52:45.753Z,2.12
2018-06-10T12:55:23.102Z,2.00
2018-06-10T12:58:01.103Z,2.40
2018-06-10T13:00:39.794Z,2.20
2018-06-10T13:03:17.798Z,2.33
2018-06-10T13:05:56.269Z,2.37
2018-06-10T13:08:34.478Z,2.20
2018-06-10T13:11:11.760Z,2.10
2018-06-10T13:13:50.428Z,2.30
2018-06-10T13:16:27.966Z,2.13
2018-06-10T13:19:05.091Z,2.00
2018-06-10T13:21:42.496Z,2.05
2018-06-10T13:24:20.461Z,2.10
2018-06-10T13:26:57.515Z,2.10
2018-06-10T13:29:34.856Z,1.70
2018-06-10T13:32:12.577Z,2.03
2018-06-10T13:34:49.453Z,1.90
2018-06-10T13:37:27.779Z,2.02
2018-06-10T13:40:04.262Z,2.57
2018-06-10T13:42:42.652Z,2.33
2018-06-10T13:45:19.512Z,1.80
2018-06-10T13:47:56.650Z,2.20
2018-06-10T13:50:34.952Z,2.10
2018-06-10T13:53:13.437Z,1.95
2018-06-10T13:55:52.145Z,1.92
2018-06-10T13:58:29.761Z,1.90
2018-06-10T14:01:08.265Z,2.40
2018-06-10T14:03:45.858Z,2.10
2018-06-10T14:06:24.549Z,2.00
2018-06-10T14:09:02.271Z,2.27
2018-06-10T14:11:40.090Z,1.97
2018-06-10T14:14:17.275Z,2.10
2018-06-10T14:16:55.813Z,1.80
2018-06-10T14:19:33.349Z,1.82
2018-06-10T14:22:11.265Z,2.43
2018-06-10T14:24:48.330Z,2.02
2018-06-10T14:27:25.857Z,1.95
2018-06-10T14:30:03.854Z,1.90
2018-06-10T14:32:41.749Z,2.00
2018-06-10T14:36:20.284Z,2.50
2018-06-10T14:38:57.837Z,2.20
2018-06-10T14:41:35.758Z,2.43
2018-06-10T14:44:13.424Z,2.20
2018-06-10T14:46:51.316Z,2.05
2018-06-10T14:49:29.356Z,1.97
2018-06-10T14:52:07.852Z,2.25
2018-06-10T14:54:44.766Z,2.42
2018-06-10T14:57:22.261Z,2.60
2018-06-10T15:00:00.494Z,1.98
2018-06-10T15:02:38.544Z,1.70
2018-06-10T15:05:16.277Z,2.02
2018-06-10T15:10:29.274Z,2.12
2018-06-10T15:13:07.102Z,2.03
2018-06-10T15:15:45.526Z,2.20
2018-06-10T15:18:24.249Z,2.00
2018-06-10T15:21:02.267Z,2.05
2018-06-10T15:23:40.267Z,2.27
2018-06-10T15:26:18.109Z,2.95
2018-06-10T15:28:55.538Z,2.20
2018-06-10T15:31:32.862Z,2.15
2018-06-10T15:34:10.592Z,2.07
2018-06-10T15:36:47.524Z,2.00
2018-06-10T15:42:03.597Z,2.30
2018-06-10T15:44:41.271Z,2.00
2018-06-10T15:47:19.943Z,1.93
2018-06-10T15:49:57.526Z,1.90
2018-06-10T15:52:35.094Z,1.92
2018-06-10T15:55:12.820Z,1.80
2018-06-10T15:57:50.323Z,1.73
2018-06-10T16:00:28.805Z,2.00
2018-06-10T16:03:06.818Z,2.23
2018-06-10T16:05:44.493Z,2.00
2018-06-10T16:08:21.488Z,2.07
2018-06-10T16:13:33.887Z,2.03
2018-06-10T16:16:11.214Z,2.00
2018-06-10T16:18:49.312Z,2.27
2018-06-10T16:21:26.872Z,2.17
2018-06-10T16:24:05.437Z,1.90
2018-06-10T16:29:19.673Z,1.80
2018-06-10T16:31:57.098Z,1.93
2018-06-10T16:34:35.214Z,1.80
2018-06-10T16:37:12.802Z,2.07
2018-06-10T16:39:50.806Z,1.97
2018-06-10T16:42:27.852Z,2.00
2018-06-10T16:45:04.757Z,2.00
2018-06-10T16:47:42.427Z,2.00
2018-06-10T16:50:19.269Z,2.00
2018-06-10T16:52:56.333Z,2.10
2018-06-10T16:58:09.466Z,1.97
2018-06-10T17:03:21.460Z,1.92
2018-06-10T17:05:58.271Z,2.10
2018-06-10T17:08:35.583Z,2.05
2018-06-10T17:11:12.896Z,2.10
2018-06-10T17:13:50.828Z,1.90
2018-06-10T17:16:29.535Z,2.10
2018-06-10T17:21:43.463Z,2.00
2018-06-10T17:24:21.213Z,2.02
2018-06-10T17:26:59.260Z,1.70
2018-06-10T17:29:37.848Z,1.80
2018-06-10T17:32:15.287Z,1.70
2018-06-10T17:34:52.842Z,1.85
2018-06-10T17:37:30.257Z,1.60
2018-06-10T17:40:08.136Z,1.57
2018-06-10T17:42:46.878Z,1.52
2018-06-10T17:47:59.441Z,1.80
2018-06-10T17:50:37.071Z,1.90
2018-06-10T17:53:14.433Z,2.50
2018-06-10T17:55:53.088Z,3.90
2018-06-10T17:58:30.262Z,4.30
2018-06-10T18:01:08.089Z,3.72
2018-06-10T18:03:45.754Z,3.20
2018-06-10T18:06:23.232Z,2.27
2018-06-10T18:09:00.266Z,1.80
2018-06-10T18:11:38.259Z,2.00
2018-06-10T18:14:15.492Z,1.90
2018-06-10T18:16:52.760Z,2.67
2018-06-10T18:19:28.273Z,2.40
2018-06-10T18:22:04.106Z,1.70
2018-06-10T18:24:40.129Z,1.73
2018-06-10T18:27:17.090Z,1.80
2018-06-10T18:29:53.270Z,1.77
2018-06-10T18:32:29.217Z,1.77
2018-06-10T18:35:05.087Z,1.30
2018-06-10T18:37:40.856Z,1.40
2018-06-10T18:40:16.848Z,1.57
2018-06-10T18:42:52.523Z,1.70
2018-06-10T18:45:28.109Z,1.50
2018-06-10T18:48:04.067Z,1.45
2018-06-10T18:50:39.910Z,1.40
2018-06-10T18:53:16.168Z,1.47
2018-06-10T18:55:53.278Z,1.50
2018-06-10T18:58:29.087Z,1.60
2018-06-10T19:01:05.258Z,1.60
2018-06-10T19:03:40.925Z,1.70
2018-06-10T19:06:16.840Z,1.30
2018-06-10T19:08:52.814Z,1.27
2018-06-10T19:11:28.520Z,1.40
2018-06-10T19:16:38.088Z,1.50
2018-06-10T19:19:14.812Z,1.50
2018-06-10T19:21:50.779Z,1.60
2018-06-10T19:24:26.881Z,1.37
2018-06-10T19:27:03.272Z,1.82
2018-06-10T19:32:13.543Z,1.70
2018-06-10T19:34:51.099Z,1.32
2018-06-10T19:37:27.271Z,1.52
2018-06-10T19:42:37.557Z,2.03
2018-06-10T19:45:13.966Z,1.70
2018-06-10T19:47:50.485Z,1.40
2018-06-10T19:50:26.912Z,1.50
2018-06-10T19:53:03.347Z,1.60
2018-06-10T19:55:39.755Z,1.75
2018-06-10T19:58:16.339Z,1.80
2018-06-10T20:00:52.934Z,1.74
2018-06-10T20:03:29.693Z,1.63
2018-06-10T20:06:06.323Z,2.00
2018-06-10T20:08:42.702Z,2.30
2018-06-10T20:11:19.210Z,2.03
2018-06-10T20:13:55.522Z,2.10
2018-06-10T20:16:31.953Z,2.10
2018-06-10T20:19:08.275Z,1.97
2018-06-10T20:21:44.417Z,2.13
2018-06-10T20:24:20.847Z,2.50
2018-06-10T20:26:57.110Z,2.00
2018-06-10T20:29:33.504Z,2.15
2018-06-10T20:32:11.093Z,2.22
2018-06-10T20:34:47.271Z,2.20
2018-06-10T20:37:23.661Z,2.15
2018-06-10T20:40:00.209Z,2.47
2018-06-10T20:42:36.429Z,2.33
2018-06-10T20:45:13.539Z,2.40
2018-06-10T20:47:49.432Z,2.20
2018-06-10T20:50:26.721Z,2.20
2018-06-10T20:53:04.209Z,2.70
2018-06-10T20:55:41.257Z,2.05
2018-06-10T20:58:17.423Z,2.20
2018-06-10T21:00:54.731Z,2.70
2018-06-10T21:03:31.276Z,2.80
2018-06-10T21:06:07.843Z,2.40
2018-06-10T21:08:44.306Z,2.15
2018-06-10T21:11:20.519Z,2.17
2018-06-10T21:13:58.410Z,2.00
2018-06-10T21:16:34.835Z,2.22
2018-06-10T21:19:11.204Z,1.60
2018-06-10T21:21:47.329Z,1.80
2018-06-10T21:24:24.315Z,2.27
2018-06-10T21:29:34.443Z,2.27
2018-06-10T21:32:10.812Z,2.55
2018-06-10T21:34:48.366Z,2.00
2018-06-10T21:37:25.746Z,2.25
2018-06-10T21:40:01.878Z,1.93
2018-06-10T21:42:38.431Z,2.15
2018-06-10T21:45:14.763Z,1.75
2018-06-10T21:47:51.279Z,2.30
2018-06-10T21:50:27.216Z,2.50
2018-06-10T21:53:05.299Z,2.67
2018-06-10T21:55:42.863Z,2.50
2018-06-10T21:58:19.479Z,2.07
2018-06-10T22:00:55.759Z,2.30
2018-06-10T22:03:33.073Z,2.20
2018-06-10T22:06:10.327Z,2.10
2018-06-10T22:08:46.308Z,2.23
2018-06-10T22:13:56.425Z,2.70
2018-06-10T22:16:32.855Z,2.58
2018-06-10T22:19:09.745Z,2.13
2018-06-10T22:21:45.748Z,2.20
2018-06-10T22:24:22.431Z,2.13
2018-06-10T22:26:59.662Z,2.10
2018-06-10T22:29:37.268Z,1.80
2018-06-10T22:34:47.433Z,2.00
2018-06-10T22:37:23.792Z,2.40
2018-06-10T22:40:01.162Z,2.53
2018-06-10T22:42:37.270Z,2.37
2018-06-10T22:45:13.833Z,2.30
2018-06-10T22:47:50.296Z,2.40
2018-06-10T22:50:26.265Z,2.30
2018-06-10T22:53:17.422Z,2.50
2018-06-10T22:55:54.263Z,1.85
2018-06-10T22:58:30.531Z,2.33
2018-06-10T23:01:06.894Z,2.13
2018-06-10T23:03:43.338Z,2.03
2018-06-10T23:06:20.210Z,2.30
2018-06-10T23:08:56.674Z,2.00
2018-06-10T23:11:33.094Z,2.00
2018-06-10T23:14:09.320Z,2.20
2018-06-10T23:16:45.580Z,2.00
2018-06-10T23:19:21.488Z,2.30
2018-06-10T23:21:57.531Z,2.13
2018-06-10T23:24:33.701Z,2.13
2018-06-10T23:27:09.830Z,1.90
2018-06-10T23:29:46.212Z,1.80
2018-06-10T23:32:24.303Z,1.80
2018-06-10T23:35:00.955Z,1.90
2018-06-10T23:37:37.323Z,2.30
2018-06-10T23:42:48.551Z,1.95
2018-06-10T23:45:24.774Z,1.87
2018-06-10T23:48:00.934Z,2.47
2018-06-10T23:50:37.092Z,2.20
2018-06-10T23:53:12.842Z,2.10
2018-06-10T23:55:49.205Z,2.20
2018-06-10T23:58:25.556Z,2.20
